Unbenanntes Dokument
Flugplatz Bielefeld Platzwetter

 

Aktuelles Platzwetter am Flugplatz Bielefeld EDLI

19.06.18 ,14:02 Uhr

METAR EDLI 191402Z 26007KT 9999 ///039 21/17 Q1024

 

Windwerte

 

Wolkenuntergrenzen

Wind aktuell:270 ° mit 10 kt
Wind 10 min Extrem:
220 ° bis 310 ° mit 3 kt bis 13 kt
Seitenwindkomponente: 4.6 kt
Wolkengrenze 1: 6000 ft
Wolkengrenze 2:
Wolkengrenze 3:

Webcam

Temperatur

       

Sichtweite:

20.000 Meter

21.9 °C
Taupunkt: 17.4 °C
Luftfeuchtigkeit: 75 %

Luftdruck:

QNH: 1024 hPa (30.24 in Hg)
QFE: 1008 hPa (29.77 in Hg)

Diese Daten werden automatisch ermittelt bzw. übertragen und sind nicht geprüft. Für die Richtigkeit wird daher keine Gewähr übernommen. Sie ersetzen im übrigen nicht die Flugwetterberatung. Alle Zeitangaben beziehen sich auf UTC. Die Seite wird einmal die Minute aktualisiert! Sollten Sie ein ältere Seite haben, so drücken Sie bitte auf den Reload Button Ihres Browsers!